East Newark, New Jersey
Current Conditions -  °F | °C
As of 9:51 PM on Tuesday 21 Oct 2014 (Local Time) from KEWR Reporting Station
Broken Clouds Broken Clouds  
Wind Chill: 57°   Ceiling: 15000
Heat Index: 57°   Visibility: 10mi
Dew Point: 52°   Wind: 9mph
Humidity: 83%   Direction: 30°NNE
Pressure: 29.89"   Gusts: NA
Location:  40.7442°N, 74.1517°W
Report Text: KEWR 220151Z 03008KT 10SM SCT035 SCT090 BKN150 BKN210 14/11 A2989 RMK AO2 SLP122 T01390111
Loading
Personal Weather Stations






























Interactive Weather Map
Tropical Storm Tracking
New forecast layout! Learn more

10-Day Weather Forecast

Advertisements
Track Severe Weather on mobile